Kenneth S. Settoon — WDD7467 — position and weather

sailwx.info

Track history (hours):
 
Tides and Currents Weather Stations Pressure Air Temp Water Temp Dewpoint Dewpoint Depression Visibility Wind Speed Wind Dir Waves Ship Positions

Kenneth S. Settoon

Owner: Settoon Towing, L.L.C., Pierre Part, LA. More information available from US FCC via Universal Licensing System and Coast Guard Vessel Documentation Center.

Last reported at 2017-Sep-21 20:10 UTC. Time now 2017-Sep-23 14:55 UTC.
Position N 29°35' W 090°36'.

Length 14 m; draft 3 m.

Type: Tug. MMSI: 367186840.

Date/timePositionNaut miles runAvg speedWind from/ knotsBaromVisibWave heightAir tempDewpointWater temp
2017-Sep-21 20:10N 29°35' W 090°36'2 6.5
2017-Sep-21 19:56N 29°35' W 090°37'2 4.9
2017-Sep-21 19:29N 29°36' W 090°40'3 0.4
2017-Sep-21 12:11N 29°35' W 090°37'0 0.0
2017-Sep-21 11:58N 29°35' W 090°37'0 0.0
2017-Sep-21 10:42N 29°35' W 090°37'0 0.0
2017-Sep-21 06:43N 29°35' W 090°37'0 0.0
2017-Sep-21 06:23N 29°35' W 090°37'0 0.0
2017-Sep-21 04:11N 29°35' W 090°37'0 0.0
2017-Sep-21 03:46N 29°35' W 090°37'0 0.0
2017-Sep-21 02:36N 29°35' W 090°37'0 0.0
2017-Sep-21 02:27N 29°35' W 090°37'0 0.0
2017-Sep-21 01:53N 29°35' W 090°37'0 0.0
2017-Sep-21 01:25N 29°35' W 090°37'0 0.0
2017-Sep-21 00:46N 29°35' W 090°37'0 0.0
2017-Sep-21 00:29N 29°35' W 090°37'0 0.0
2017-Sep-20 23:53N 29°35' W 090°37'0 0.0
2017-Sep-20 23:25N 29°35' W 090°37'0 0.0
2017-Sep-20 22:53N 29°35' W 090°37'0 0.0
2017-Sep-20 21:38N 29°35' W 090°37'0 0.0
2017-Sep-20 21:12N 29°35' W 090°37'0 0.0
2017-Sep-20 21:00N 29°35' W 090°37'0 0.0
2017-Sep-20 15:11N 29°35' W 090°37'0 0.9
2017-Sep-20 15:00N 29°35' W 090°36'3 3.0
2017-Sep-20 14:00N 29°36' W 090°40'0 0.0
2017-Sep-20 13:30N 29°36' W 090°40'0 0.0
2017-Sep-20 13:00N 29°36' W 090°40'0 0.0
2017-Sep-20 12:29N 29°36' W 090°40'0 0.0
2017-Sep-20 11:55N 29°36' W 090°40'0 0.0
2017-Sep-20 11:23N 29°36' W 090°40'0 0.0
2017-Sep-20 10:59N 29°36' W 090°40'0 0.0
2017-Sep-20 10:28N 29°36' W 090°40'0 0.0
2017-Sep-20 10:00N 29°36' W 090°40'0 0.0
2017-Sep-20 09:30N 29°36' W 090°40'0 0.0
2017-Sep-20 09:00N 29°36' W 090°40'0 0.0
2017-Sep-20 08:30N 29°36' W 090°40'0 0.0
2017-Sep-20 07:59N 29°36' W 090°40'0 0.0
2017-Sep-20 07:29N 29°36' W 090°40'0 0.0
2017-Sep-20 06:59N 29°36' W 090°40'0 0.0
2017-Sep-20 06:30N 29°36' W 090°40'0 0.0
2017-Sep-20 05:59N 29°36' W 090°40'0 0.0
2017-Sep-20 05:29N 29°36' W 090°40'0 0.0
2017-Sep-20 05:00N 29°36' W 090°40'0 0.0
2017-Sep-20 04:29N 29°36' W 090°40'0 0.0
2017-Sep-20 03:59N 29°36' W 090°40'0 0.0
2017-Sep-20 03:28N 29°36' W 090°40'0 0.0
2017-Sep-20 03:00N 29°36' W 090°40'0 0.0
2017-Sep-20 02:30N 29°36' W 090°40'0 0.0
2017-Sep-20 01:59N 29°36' W 090°40'0 0.0
2017-Sep-20 01:29N 29°36' W 090°40'0 0.0
2017-Sep-20 01:00N 29°36' W 090°40'0 0.0
2017-Sep-20 00:30N 29°36' W 090°40'0 0.0
2017-Sep-20 00:00N 29°36' W 090°40'0 0.0
2017-Sep-19 23:30N 29°36' W 090°40'0 0.0
2017-Sep-19 23:00N 29°36' W 090°40'0 0.0
2017-Sep-19 22:30N 29°36' W 090°40'0 0.0
2017-Sep-19 21:59N 29°36' W 090°40'0 0.0
2017-Sep-19 21:30N 29°36' W 090°40'0 0.0
2017-Sep-19 21:00N 29°36' W 090°40'0 0.0
2017-Sep-19 20:30N 29°36' W 090°40'0 0.0
2017-Sep-19 20:00N 29°36' W 090°40'0 0.0
2017-Sep-19 19:30N 29°36' W 090°40'0 0.0
2017-Sep-19 19:00N 29°36' W 090°40'0 0.0
2017-Sep-19 18:30N 29°36' W 090°40'0 0.0
2017-Sep-19 18:00N 29°36' W 090°40'0 0.0
2017-Sep-19 17:30N 29°36' W 090°40'0 0.0
2017-Sep-19 17:00N 29°36' W 090°40'0 0.0
2017-Sep-19 16:30N 29°36' W 090°40'0 0.0
2017-Sep-19 16:00N 29°36' W 090°40'0 0.0
2017-Sep-19 15:30N 29°36' W 090°40'0 0.0
2017-Sep-19 15:00N 29°36' W 090°40'0 0.0
2017-Sep-19 14:30N 29°36' W 090°40'0 0.0
2017-Sep-19 14:00N 29°36' W 090°40'0 0.0
2017-Sep-19 13:30N 29°36' W 090°40'0 0.0
2017-Sep-19 13:00N 29°36' W 090°40'0 0.0
2017-Sep-19 12:30N 29°36' W 090°40'0 0.0
2017-Sep-19 12:00N 29°36' W 090°40'0 0.0
2017-Sep-19 11:30N 29°36' W 090°40'0 0.0
2017-Sep-19 11:00N 29°36' W 090°40'0 0.0
2017-Sep-19 10:30N 29°36' W 090°40'0 0.0
2017-Sep-19 10:00N 29°36' W 090°40'0 0.0
2017-Sep-19 09:30N 29°36' W 090°40'0 0.0
2017-Sep-19 09:00N 29°36' W 090°40'0 0.0
2017-Sep-19 08:30N 29°36' W 090°40'0 0.0
2017-Sep-19 08:00N 29°36' W 090°40'0 0.0
2017-Sep-19 07:30N 29°36' W 090°40'0 0.0
2017-Sep-19 07:00N 29°36' W 090°40'0 0.0
2017-Sep-19 06:30N 29°36' W 090°40'0 0.0
2017-Sep-19 06:00N 29°36' W 090°40'0 0.0
2017-Sep-19 05:30N 29°36' W 090°40'0 0.0
2017-Sep-19 05:00N 29°36' W 090°40'0 0.0
2017-Sep-19 04:30N 29°36' W 090°40'0 0.0
2017-Sep-19 04:00N 29°36' W 090°40'0 0.0
2017-Sep-19 03:30N 29°36' W 090°40'0 0.0
2017-Sep-19 03:00N 29°36' W 090°40'0 0.0
2017-Sep-19 02:30N 29°36' W 090°40'0 0.0
2017-Sep-19 02:00N 29°36' W 090°40'0 0.0
2017-Sep-19 01:30N 29°36' W 090°40'0 0.0
2017-Sep-19 01:00N 29°36' W 090°40'0 0.0
2017-Sep-19 00:30N 29°36' W 090°40'0 0.0
2017-Sep-19 00:00N 29°36' W 090°40'0 0.0
2017-Sep-18 23:30N 29°36' W 090°40'0 0.0
2017-Sep-18 23:00N 29°36' W 090°40'0 0.0
2017-Sep-18 22:30N 29°36' W 090°40'0 0.0
2017-Sep-18 22:00N 29°36' W 090°40'0 0.0
2017-Sep-18 21:30N 29°36' W 090°40'2 4.5
2017-Sep-18 21:00N 29°35' W 090°37'2 0.1
2017-Sep-17 17:23N 29°35' W 090°36'3 6.9
2017-Sep-17 16:56N 29°36' W 090°39'0 1.0
2017-Sep-17 16:28N 29°36' W 090°40'0 0.0
2017-Sep-17 16:00N 29°36' W 090°40'0 0.0
2017-Sep-17 15:30N 29°36' W 090°40'0 0.0
2017-Sep-17 15:00N 29°36' W 090°40'0 0.0
2017-Sep-17 14:30N 29°36' W 090°40'0 0.0
2017-Sep-17 14:00N 29°36' W 090°40'0 0.0
2017-Sep-17 13:30N 29°36' W 090°40'0 0.0
2017-Sep-17 13:00N 29°36' W 090°40'0 0.0
2017-Sep-17 12:30N 29°36' W 090°40'0 0.0
2017-Sep-17 12:00N 29°36' W 090°40'0 0.0
2017-Sep-17 11:30N 29°36' W 090°40'0 0.0
2017-Sep-17 11:00N 29°36' W 090°40'0 0.0
2017-Sep-17 10:30N 29°36' W 090°40'0 0.0
2017-Sep-17 10:00N 29°36' W 090°40'0 0.0
2017-Sep-17 09:30N 29°36' W 090°40'0 0.0
2017-Sep-17 09:00N 29°36' W 090°40'0 0.0
2017-Sep-17 08:30N 29°36' W 090°40'0 0.0
2017-Sep-17 08:00N 29°36' W 090°40'0 0.0
2017-Sep-17 07:30N 29°36' W 090°40'0 0.0
2017-Sep-17 07:00N 29°36' W 090°40'0 0.0
2017-Sep-17 06:30N 29°36' W 090°40'0 0.0
2017-Sep-17 06:00N 29°36' W 090°40'0 0.0
2017-Sep-17 05:30N 29°36' W 090°40'0 0.0
2017-Sep-17 05:00N 29°36' W 090°40'0 0.0
2017-Sep-17 04:30N 29°36' W 090°40'0 0.0
2017-Sep-17 04:00N 29°36' W 090°40'0 0.0
2017-Sep-17 03:30N 29°36' W 090°40'0 0.0
2017-Sep-17 03:00N 29°36' W 090°40'0 0.0
2017-Sep-17 02:30N 29°36' W 090°40'0 0.0
2017-Sep-17 02:00N 29°36' W 090°40'0 0.0
2017-Sep-17 01:30N 29°36' W 090°40'0 0.0
2017-Sep-17 01:00N 29°36' W 090°40'0 0.0
2017-Sep-17 00:30N 29°36' W 090°40'0 0.0
2017-Sep-17 00:00N 29°36' W 090°40'0 0.0
2017-Sep-16 23:30N 29°36' W 090°40'0 0.0
2017-Sep-16 23:00N 29°36' W 090°40'0 0.0
2017-Sep-16 22:30N 29°36' W 090°40'0 0.0
2017-Sep-16 22:00N 29°36' W 090°40'0 0.0
2017-Sep-16 21:30N 29°36' W 090°40'0 0.0
2017-Sep-16 21:00N 29°36' W 090°40'0 0.0
2017-Sep-16 20:30N 29°36' W 090°40'0 0.0
2017-Sep-16 20:00N 29°36' W 090°40'0 0.0
2017-Sep-16 19:30N 29°36' W 090°40'0 0.0
2017-Sep-16 19:00N 29°36' W 090°40'0 0.0
2017-Sep-16 18:30N 29°36' W 090°40'0 0.0
2017-Sep-16 18:00N 29°36' W 090°40'0 0.0
2017-Sep-16 17:30N 29°36' W 090°40'0 0.0
2017-Sep-16 17:00N 29°36' W 090°40'0 0.0
2017-Sep-16 16:30N 29°36' W 090°40'0 0.0
2017-Sep-16 16:00N 29°36' W 090°40'0 0.0
2017-Sep-16 15:30N 29°36' W 090°40'0 0.0
2017-Sep-16 15:00N 29°36' W 090°40'0 0.0
2017-Sep-16 14:30N 29°36' W 090°40'0 0.0
2017-Sep-16 14:00N 29°36' W 090°40'0 0.0
2017-Sep-16 13:30N 29°36' W 090°40'0 0.0
2017-Sep-16 13:00N 29°36' W 090°40'0 0.0
2017-Sep-16 12:30N 29°36' W 090°40'0 0.0
2017-Sep-16 12:00N 29°36' W 090°40'0 0.0
2017-Sep-16 11:30N 29°36' W 090°40'0 0.0
2017-Sep-16 11:00N 29°36' W 090°40'0 0.0
2017-Sep-16 10:30N 29°36' W 090°40'0 0.0
2017-Sep-16 10:00N 29°36' W 090°40'0 0.0
2017-Sep-16 09:30N 29°36' W 090°40'0 0.0
2017-Sep-16 09:00N 29°36' W 090°40'0 0.0
2017-Sep-16 08:30N 29°36' W 090°40'0 0.0
2017-Sep-16 08:00N 29°36' W 090°40'0 0.0
2017-Sep-16 07:30N 29°36' W 090°40'0 0.0
2017-Sep-16 07:00N 29°36' W 090°40'0 0.0
2017-Sep-16 06:30N 29°36' W 090°40'0 0.0
2017-Sep-16 06:00N 29°36' W 090°40'0 0.0
2017-Sep-16 05:30N 29°36' W 090°40'0 0.0
2017-Sep-16 05:00N 29°36' W 090°40'0 0.0
2017-Sep-16 04:30N 29°36' W 090°40'0 0.0
2017-Sep-16 04:00N 29°36' W 090°40'0 0.0
2017-Sep-16 03:30N 29°36' W 090°40'0 0.0
2017-Sep-16 03:00N 29°36' W 090°40'0 0.0
2017-Sep-16 02:30N 29°36' W 090°40'0 0.0
2017-Sep-16 02:00N 29°36' W 090°40'0 0.0
2017-Sep-16 01:30N 29°36' W 090°40'0 0.0
2017-Sep-16 01:00N 29°36' W 090°40'0 0.0
2017-Sep-16 00:30N 29°36' W 090°40'0 0.0
2017-Sep-16 00:00N 29°36' W 090°40'0 0.0
2017-Sep-15 23:30N 29°36' W 090°40'0 0.0
2017-Sep-15 23:00N 29°36' W 090°40'0 0.0
2017-Sep-15 22:30N 29°36' W 090°40'0 0.9
2017-Sep-15 22:00N 29°36' W 090°39'3 6.0
2017-Sep-15 21:30N 29°35' W 090°36'0 0.0
2017-Sep-14 17:14N 29°35' W 090°36'2 6.5
2017-Sep-14 16:58N 29°35' W 090°38'2 3.5
2017-Sep-14 16:30N 29°36' W 090°40'0 0.0
2017-Sep-14 16:00N 29°36' W 090°40'0 0.0
2017-Sep-14 15:30N 29°36' W 090°40'0 0.0
2017-Sep-14 15:00N 29°36' W 090°40'0 0.0
2017-Sep-14 14:30N 29°36' W 090°40'0 0.0
2017-Sep-14 13:59N 29°36' W 090°40'0 0.0
2017-Sep-14 13:30N 29°36' W 090°40'0 0.0
2017-Sep-14 13:00N 29°36' W 090°40'0 0.0
2017-Sep-14 12:30N 29°36' W 090°40'0 0.0
2017-Sep-14 12:00N 29°36' W 090°40'0 0.0
2017-Sep-14 11:30N 29°36' W 090°40'0 0.0
2017-Sep-14 11:00N 29°36' W 090°40'0 0.0
2017-Sep-14 10:30N 29°36' W 090°40'0 0.0
2017-Sep-14 10:00N 29°36' W 090°40'0 0.0
2017-Sep-14 09:30N 29°36' W 090°40'0 0.0
2017-Sep-14 09:00N 29°36' W 090°40'0 0.0
2017-Sep-14 08:30N 29°36' W 090°40'0 0.0
2017-Sep-14 08:00N 29°36' W 090°40'0 0.0
2017-Sep-14 07:30N 29°36' W 090°40'0 0.0
2017-Sep-14 07:00N 29°36' W 090°40'0 0.0
2017-Sep-14 06:30N 29°36' W 090°40'0 0.0
2017-Sep-14 06:00N 29°36' W 090°40'0 0.0
2017-Sep-14 05:30N 29°36' W 090°40'0 0.0
2017-Sep-14 05:00N 29°36' W 090°40'0 0.0
2017-Sep-14 04:30N 29°36' W 090°40'0 0.0
2017-Sep-14 04:00N 29°36' W 090°40'0 0.0
2017-Sep-14 03:30N 29°36' W 090°40'0 0.0
2017-Sep-14 03:00N 29°36' W 090°40'0 0.0
2017-Sep-14 02:30N 29°36' W 090°40'0 0.0
2017-Sep-14 02:00N 29°36' W 090°40'0 0.0
2017-Sep-14 01:30N 29°36' W 090°40'0 0.0
2017-Sep-14 01:00N 29°36' W 090°40'0 0.0
2017-Sep-14 00:30N 29°36' W 090°40'0 0.0
2017-Sep-14 00:00N 29°36' W 090°40'0 0.0
2017-Sep-13 23:30N 29°36' W 090°40'0 0.0
2017-Sep-13 23:00N 29°36' W 090°40'0 0.0
2017-Sep-13 22:30N 29°36' W 090°40'0 0.0
2017-Sep-13 22:00N 29°36' W 090°40'0 0.0
2017-Sep-13 21:27N 29°36' W 090°40'0 0.0
2017-Sep-13 20:58N 29°36' W 090°40'0 0.0
2017-Sep-13 20:30N 29°36' W 090°40'0 0.0
2017-Sep-13 19:58N 29°36' W 090°40'0 0.0
2017-Sep-13 19:30N 29°36' W 090°40'0 0.0
2017-Sep-13 18:52N 29°36' W 090°40'0 0.0
2017-Sep-13 18:28N 29°36' W 090°40'2 3.6
2017-Sep-13 18:00N 29°37' W 090°41'1 1.0
2017-Sep-13 16:36N 29°36' W 090°43'0 4.4
2017-Sep-13 16:30N 29°36' W 090°43'2 4.3
2017-Sep-13 16:00N 29°36' W 090°40'1 1.1
2017-Sep-13 15:29N 29°36' W 090°40'0 0.0
2017-Sep-13 14:58N 29°36' W 090°40'0 0.0
2017-Sep-13 14:29N 29°36' W 090°40'0 0.0
2017-Sep-13 13:58N 29°36' W 090°40'0 0.0
2017-Sep-13 13:30N 29°36' W 090°40'0 0.0
2017-Sep-13 12:49N 29°36' W 090°40'0 0.0
2017-Sep-13 12:30N 29°36' W 090°40'0 0.0
2017-Sep-13 12:00N 29°36' W 090°40'0 0.0
2017-Sep-13 11:29N 29°36' W 090°40'0 0.0
2017-Sep-13 10:59N 29°36' W 090°40'0 0.0
2017-Sep-13 10:30N 29°36' W 090°40'0 0.0
2017-Sep-13 10:00N 29°36' W 090°40'0 0.0
2017-Sep-13 09:30N 29°36' W 090°40'0 0.0
2017-Sep-13 09:00N 29°36' W 090°40'0 0.0
2017-Sep-13 08:30N 29°36' W 090°40'0 0.0
2017-Sep-13 08:00N 29°36' W 090°40'0 0.0
2017-Sep-13 07:30N 29°36' W 090°40'0 0.0
2017-Sep-13 07:00N 29°36' W 090°40'0 0.0
2017-Sep-13 06:29N 29°36' W 090°40'0 0.0
2017-Sep-13 06:00N 29°36' W 090°40'0 0.0
2017-Sep-13 05:30N 29°36' W 090°40'0 0.0
2017-Sep-13 05:00N 29°36' W 090°40'0 0.0
2017-Sep-13 04:30N 29°36' W 090°40'0 0.0
2017-Sep-13 04:00N 29°36' W 090°40'0 0.0
2017-Sep-13 03:29N 29°36' W 090°40'0 0.0
2017-Sep-13 03:00N 29°36' W 090°40'0 0.0
2017-Sep-13 02:30N 29°36' W 090°40'0 0.0
2017-Sep-13 02:00N 29°36' W 090°40'0 0.0
2017-Sep-13 01:30N 29°36' W 090°40'0 0.0
2017-Sep-13 01:00N 29°36' W 090°40'0 0.0
2017-Sep-13 00:30N 29°36' W 090°40'0 0.0
2017-Sep-13 00:00N 29°36' W 090°40'0 0.0
2017-Sep-12 23:30N 29°36' W 090°40'0 0.0
2017-Sep-12 19:05N 29°36' W 090°40'0 0.0
2017-Sep-12 18:54N 29°36' W 090°40'0 0.0
2017-Sep-12 18:13N 29°36' W 090°40'0 0.0
2017-Sep-12 18:00N 29°36' W 090°40'0 0.0
2017-Sep-12 17:12N 29°36' W 090°40'0 0.0
2017-Sep-12 16:59N 29°36' W 090°40'0 0.0
2017-Sep-12 16:28N 29°36' W 090°40'0 0.0
2017-Sep-12 15:59N 29°36' W 090°40'0 0.0
2017-Sep-12 15:27N 29°36' W 090°40'0 0.0
2017-Sep-12 15:00N 29°36' W 090°40'0 0.0
2017-Sep-12 14:29N 29°36' W 090°40'0 0.0
2017-Sep-12 13:57N 29°36' W 090°40'0 0.0
2017-Sep-12 13:28N 29°36' W 090°40'0 0.0
2017-Sep-12 12:58N 29°36' W 090°40'0 0.0
2017-Sep-12 09:15N 29°36' W 090°40'0 0.0
2017-Sep-12 09:00N 29°36' W 090°40'0 0.0
2017-Sep-12 08:30N 29°36' W 090°40'0 0.0
2017-Sep-12 08:00N 29°36' W 090°40'0 0.0
2017-Sep-12 07:30N 29°36' W 090°40'0 0.0
2017-Sep-12 07:00N 29°36' W 090°40'0 0.0
2017-Sep-12 06:30N 29°36' W 090°40'0 0.0
2017-Sep-12 06:00N 29°36' W 090°40'0 0.0
2017-Sep-12 05:30N 29°36' W 090°40'0 0.0
2017-Sep-12 05:00N 29°36' W 090°40'0 0.0
2017-Sep-12 04:30N 29°36' W 090°40'0 0.0
2017-Sep-12 04:00N 29°36' W 090°40'0 0.0
2017-Sep-12 03:30N 29°36' W 090°40'0 0.0
2017-Sep-12 03:00N 29°36' W 090°40'0 0.0
2017-Sep-12 02:30N 29°36' W 090°40'0 0.0
2017-Sep-12 02:00N 29°36' W 090°40'0 0.0
2017-Sep-12 01:30N 29°36' W 090°40'0 0.0
2017-Sep-12 01:00N 29°36' W 090°40'0 0.0
2017-Sep-12 00:30N 29°36' W 090°40'0 0.0
2017-Sep-12 00:00N 29°36' W 090°40'0 0.0
2017-Sep-11 22:34N 29°36' W 090°40'0 0.0
2017-Sep-11 22:11N 29°36' W 090°40'0 0.0
2017-Sep-11 21:44N 29°36' W 090°40'1 4.7
2017-Sep-11 21:30N 29°35' W 090°38'  
Track history (hours):
 
Tides and Currents Weather Stations Pressure Air Temp Water Temp Dewpoint Dewpoint Depression Visibility Wind Speed Wind Dir Waves Ship Positions

Kenneth S. Settoon

Owner: Settoon Towing, L.L.C., Pierre Part, LA. More information available from US FCC via Universal Licensing System and Coast Guard Vessel Documentation Center.

Last reported at 2017-Sep-21 20:10 UTC. Time now 2017-Sep-23 14:55 UTC.
Position N 29°35' W 090°36'.

Length 14 m; draft 3 m.

Type: Tug. MMSI: 367186840.

Date/timePositionNaut miles runAvg speedWind from/ knotsBaromVisibWave heightAir tempDewpointWater temp
2017-Sep-21 20:10N 29°35' W 090°36'2 6.5
2017-Sep-21 19:56N 29°35' W 090°37'2 4.9
2017-Sep-21 19:29N 29°36' W 090°40'3 0.4
2017-Sep-21 12:11N 29°35' W 090°37'0 0.0
2017-Sep-21 11:58N 29°35' W 090°37'0 0.0
2017-Sep-21 10:42N 29°35' W 090°37'0 0.0
2017-Sep-21 06:43N 29°35' W 090°37'0 0.0
2017-Sep-21 06:23N 29°35' W 090°37'0 0.0
2017-Sep-21 04:11N 29°35' W 090°37'0 0.0
2017-Sep-21 03:46N 29°35' W 090°37'0 0.0
2017-Sep-21 02:36N 29°35' W 090°37'0 0.0
2017-Sep-21 02:27N 29°35' W 090°37'0 0.0
2017-Sep-21 01:53N 29°35' W 090°37'0 0.0
2017-Sep-21 01:25N 29°35' W 090°37'0 0.0
2017-Sep-21 00:46N 29°35' W 090°37'0 0.0
2017-Sep-21 00:29N 29°35' W 090°37'0 0.0
2017-Sep-20 23:53N 29°35' W 090°37'0 0.0
2017-Sep-20 23:25N 29°35' W 090°37'0 0.0
2017-Sep-20 22:53N 29°35' W 090°37'0 0.0
2017-Sep-20 21:38N 29°35' W 090°37'0 0.0
2017-Sep-20 21:12N 29°35' W 090°37'0 0.0
2017-Sep-20 21:00N 29°35' W 090°37'0 0.0
2017-Sep-20 15:11N 29°35' W 090°37'0 0.9
2017-Sep-20 15:00N 29°35' W 090°36'3 3.0
2017-Sep-20 14:00N 29°36' W 090°40'0 0.0
2017-Sep-20 13:30N 29°36' W 090°40'0 0.0
2017-Sep-20 13:00N 29°36' W 090°40'0 0.0
2017-Sep-20 12:29N 29°36' W 090°40'0 0.0
2017-Sep-20 11:55N 29°36' W 090°40'0 0.0
2017-Sep-20 11:23N 29°36' W 090°40'0 0.0
2017-Sep-20 10:59N 29°36' W 090°40'0 0.0
2017-Sep-20 10:28N 29°36' W 090°40'0 0.0
2017-Sep-20 10:00N 29°36' W 090°40'0 0.0
2017-Sep-20 09:30N 29°36' W 090°40'0 0.0
2017-Sep-20 09:00N 29°36' W 090°40'0 0.0
2017-Sep-20 08:30N 29°36' W 090°40'0 0.0
2017-Sep-20 07:59N 29°36' W 090°40'0 0.0
2017-Sep-20 07:29N 29°36' W 090°40'0 0.0
2017-Sep-20 06:59N 29°36' W 090°40'0 0.0
2017-Sep-20 06:30N 29°36' W 090°40'0 0.0
2017-Sep-20 05:59N 29°36' W 090°40'0 0.0
2017-Sep-20 05:29N 29°36' W 090°40'0 0.0
2017-Sep-20 05:00N 29°36' W 090°40'0 0.0
2017-Sep-20 04:29N 29°36' W 090°40'0 0.0
2017-Sep-20 03:59N 29°36' W 090°40'0 0.0
2017-Sep-20 03:28N 29°36' W 090°40'0 0.0
2017-Sep-20 03:00N 29°36' W 090°40'0 0.0
2017-Sep-20 02:30N 29°36' W 090°40'0 0.0
2017-Sep-20 01:59N 29°36' W 090°40'0 0.0
2017-Sep-20 01:29N 29°36' W 090°40'0 0.0
2017-Sep-20 01:00N 29°36' W 090°40'0 0.0
2017-Sep-20 00:30N 29°36' W 090°40'0 0.0
2017-Sep-20 00:00N 29°36' W 090°40'0 0.0
2017-Sep-19 23:30N 29°36' W 090°40'0 0.0
2017-Sep-19 23:00N 29°36' W 090°40'0 0.0
2017-Sep-19 22:30N 29°36' W 090°40'0 0.0
2017-Sep-19 21:59N 29°36' W 090°40'0 0.0
2017-Sep-19 21:30N 29°36' W 090°40'0 0.0
2017-Sep-19 21:00N 29°36' W 090°40'0 0.0
2017-Sep-19 20:30N 29°36' W 090°40'0 0.0
2017-Sep-19 20:00N 29°36' W 090°40'0 0.0
2017-Sep-19 19:30N 29°36' W 090°40'0 0.0
2017-Sep-19 19:00N 29°36' W 090°40'0 0.0
2017-Sep-19 18:30N 29°36' W 090°40'0 0.0
2017-Sep-19 18:00N 29°36' W 090°40'0 0.0
2017-Sep-19 17:30N 29°36' W 090°40'0 0.0
2017-Sep-19 17:00N 29°36' W 090°40'0 0.0
2017-Sep-19 16:30N 29°36' W 090°40'0 0.0
2017-Sep-19 16:00N 29°36' W 090°40'0 0.0
2017-Sep-19 15:30N 29°36' W 090°40'0 0.0
2017-Sep-19 15:00N 29°36' W 090°40'0 0.0
2017-Sep-19 14:30N 29°36' W 090°40'0 0.0
2017-Sep-19 14:00N 29°36' W 090°40'0 0.0
2017-Sep-19 13:30N 29°36' W 090°40'0 0.0
2017-Sep-19 13:00N 29°36' W 090°40'0 0.0
2017-Sep-19 12:30N 29°36' W 090°40'0 0.0
2017-Sep-19 12:00N 29°36' W 090°40'0 0.0
2017-Sep-19 11:30N 29°36' W 090°40'0 0.0
2017-Sep-19 11:00N 29°36' W 090°40'0 0.0
2017-Sep-19 10:30N 29°36' W 090°40'0 0.0
2017-Sep-19 10:00N 29°36' W 090°40'0 0.0
2017-Sep-19 09:30N 29°36' W 090°40'0 0.0
2017-Sep-19 09:00N 29°36' W 090°40'0 0.0
2017-Sep-19 08:30N 29°36' W 090°40'0 0.0
2017-Sep-19 08:00N 29°36' W 090°40'0 0.0
2017-Sep-19 07:30N 29°36' W 090°40'0 0.0
2017-Sep-19 07:00N 29°36' W 090°40'0 0.0
2017-Sep-19 06:30N 29°36' W 090°40'0 0.0
2017-Sep-19 06:00N 29°36' W 090°40'0 0.0
2017-Sep-19 05:30N 29°36' W 090°40'0 0.0
2017-Sep-19 05:00N 29°36' W 090°40'0 0.0
2017-Sep-19 04:30N 29°36' W 090°40'0 0.0
2017-Sep-19 04:00N 29°36' W 090°40'0 0.0
2017-Sep-19 03:30N 29°36' W 090°40'0 0.0
2017-Sep-19 03:00N 29°36' W 090°40'0 0.0
2017-Sep-19 02:30N 29°36' W 090°40'0 0.0
2017-Sep-19 02:00N 29°36' W 090°40'0 0.0
2017-Sep-19 01:30N 29°36' W 090°40'0 0.0
2017-Sep-19 01:00N 29°36' W 090°40'0 0.0
2017-Sep-19 00:30N 29°36' W 090°40'0 0.0
2017-Sep-19 00:00N 29°36' W 090°40'0 0.0
2017-Sep-18 23:30N 29°36' W 090°40'0 0.0
2017-Sep-18 23:00N 29°36' W 090°40'0 0.0
2017-Sep-18 22:30N 29°36' W 090°40'0 0.0
2017-Sep-18 22:00N 29°36' W 090°40'0 0.0
2017-Sep-18 21:30N 29°36' W 090°40'2 4.5
2017-Sep-18 21:00N 29°35' W 090°37'2 0.1
2017-Sep-17 17:23N 29°35' W 090°36'3 6.9
2017-Sep-17 16:56N 29°36' W 090°39'0 1.0
2017-Sep-17 16:28N 29°36' W 090°40'0 0.0
2017-Sep-17 16:00N 29°36' W 090°40'0 0.0
2017-Sep-17 15:30N 29°36' W 090°40'0 0.0
2017-Sep-17 15:00N 29°36' W 090°40'0 0.0
2017-Sep-17 14:30N 29°36' W 090°40'0 0.0
2017-Sep-17 14:00N 29°36' W 090°40'0 0.0
2017-Sep-17 13:30N 29°36' W 090°40'0 0.0
2017-Sep-17 13:00N 29°36' W 090°40'0 0.0
2017-Sep-17 12:30N 29°36' W 090°40'0 0.0
2017-Sep-17 12:00N 29°36' W 090°40'0 0.0
2017-Sep-17 11:30N 29°36' W 090°40'0 0.0
2017-Sep-17 11:00N 29°36' W 090°40'0 0.0
2017-Sep-17 10:30N 29°36' W 090°40'0 0.0
2017-Sep-17 10:00N 29°36' W 090°40'0 0.0
2017-Sep-17 09:30N 29°36' W 090°40'0 0.0
2017-Sep-17 09:00N 29°36' W 090°40'0 0.0
2017-Sep-17 08:30N 29°36' W 090°40'0 0.0
2017-Sep-17 08:00N 29°36' W 090°40'0 0.0
2017-Sep-17 07:30N 29°36' W 090°40'0 0.0
2017-Sep-17 07:00N 29°36' W 090°40'0 0.0
2017-Sep-17 06:30N 29°36' W 090°40'0 0.0
2017-Sep-17 06:00N 29°36' W 090°40'0 0.0
2017-Sep-17 05:30N 29°36' W 090°40'0 0.0
2017-Sep-17 05:00N 29°36' W 090°40'0 0.0
2017-Sep-17 04:30N 29°36' W 090°40'0 0.0
2017-Sep-17 04:00N 29°36' W 090°40'0 0.0
2017-Sep-17 03:30N 29°36' W 090°40'0 0.0
2017-Sep-17 03:00N 29°36' W 090°40'0 0.0
2017-Sep-17 02:30N 29°36' W 090°40'0 0.0
2017-Sep-17 02:00N 29°36' W 090°40'0 0.0
2017-Sep-17 01:30N 29°36' W 090°40'0 0.0
2017-Sep-17 01:00N 29°36' W 090°40'0 0.0
2017-Sep-17 00:30N 29°36' W 090°40'0 0.0
2017-Sep-17 00:00N 29°36' W 090°40'0 0.0
2017-Sep-16 23:30N 29°36' W 090°40'0 0.0
2017-Sep-16 23:00N 29°36' W 090°40'0 0.0
2017-Sep-16 22:30N 29°36' W 090°40'0 0.0
2017-Sep-16 22:00N 29°36' W 090°40'0 0.0
2017-Sep-16 21:30N 29°36' W 090°40'0 0.0
2017-Sep-16 21:00N 29°36' W 090°40'0 0.0
2017-Sep-16 20:30N 29°36' W 090°40'0 0.0
2017-Sep-16 20:00N 29°36' W 090°40'0 0.0
2017-Sep-16 19:30N 29°36' W 090°40'0 0.0
2017-Sep-16 19:00N 29°36' W 090°40'0 0.0
2017-Sep-16 18:30N 29°36' W 090°40'0 0.0
2017-Sep-16 18:00N 29°36' W 090°40'0 0.0
2017-Sep-16 17:30N 29°36' W 090°40'0 0.0
2017-Sep-16 17:00N 29°36' W 090°40'0 0.0
2017-Sep-16 16:30N 29°36' W 090°40'0 0.0
2017-Sep-16 16:00N 29°36' W 090°40'0 0.0
2017-Sep-16 15:30N 29°36' W 090°40'0 0.0
2017-Sep-16 15:00N 29°36' W 090°40'0 0.0
2017-Sep-16 14:30N 29°36' W 090°40'0 0.0
2017-Sep-16 14:00N 29°36' W 090°40'0 0.0
2017-Sep-16 13:30N 29°36' W 090°40'0 0.0
2017-Sep-16 13:00N 29°36' W 090°40'0 0.0
2017-Sep-16 12:30N 29°36' W 090°40'0 0.0
2017-Sep-16 12:00N 29°36' W 090°40'0 0.0
2017-Sep-16 11:30N 29°36' W 090°40'0 0.0
2017-Sep-16 11:00N 29°36' W 090°40'0 0.0
2017-Sep-16 10:30N 29°36' W 090°40'0 0.0
2017-Sep-16 10:00N 29°36' W 090°40'0 0.0
2017-Sep-16 09:30N 29°36' W 090°40'0 0.0
2017-Sep-16 09:00N 29°36' W 090°40'0 0.0
2017-Sep-16 08:30N 29°36' W 090°40'0 0.0
2017-Sep-16 08:00N 29°36' W 090°40'0 0.0
2017-Sep-16 07:30N 29°36' W 090°40'0 0.0
2017-Sep-16 07:00N 29°36' W 090°40'0 0.0
2017-Sep-16 06:30N 29°36' W 090°40'0 0.0
2017-Sep-16 06:00N 29°36' W 090°40'0 0.0
2017-Sep-16 05:30N 29°36' W 090°40'0 0.0
2017-Sep-16 05:00N 29°36' W 090°40'0 0.0
2017-Sep-16 04:30N 29°36' W 090°40'0 0.0
2017-Sep-16 04:00N 29°36' W 090°40'0 0.0
2017-Sep-16 03:30N 29°36' W 090°40'0 0.0
2017-Sep-16 03:00N 29°36' W 090°40'0 0.0
2017-Sep-16 02:30N 29°36' W 090°40'0 0.0
2017-Sep-16 02:00N 29°36' W 090°40'0 0.0
2017-Sep-16 01:30N 29°36' W 090°40'0 0.0
2017-Sep-16 01:00N 29°36' W 090°40'0 0.0
2017-Sep-16 00:30N 29°36' W 090°40'0 0.0
2017-Sep-16 00:00N 29°36' W 090°40'0 0.0
2017-Sep-15 23:30N 29°36' W 090°40'0 0.0
2017-Sep-15 23:00N 29°36' W 090°40'0 0.0
2017-Sep-15 22:30N 29°36' W 090°40'0 0.9
2017-Sep-15 22:00N 29°36' W 090°39'3 6.0
2017-Sep-15 21:30N 29°35' W 090°36'0 0.0
2017-Sep-14 17:14N 29°35' W 090°36'2 6.5
2017-Sep-14 16:58N 29°35' W 090°38'2 3.5
2017-Sep-14 16:30N 29°36' W 090°40'0 0.0
2017-Sep-14 16:00N 29°36' W 090°40'0 0.0
2017-Sep-14 15:30N 29°36' W 090°40'0 0.0
2017-Sep-14 15:00N 29°36' W 090°40'0 0.0
2017-Sep-14 14:30N 29°36' W 090°40'0 0.0
2017-Sep-14 13:59N 29°36' W 090°40'0 0.0
2017-Sep-14 13:30N 29°36' W 090°40'0 0.0
2017-Sep-14 13:00N 29°36' W 090°40'0 0.0
2017-Sep-14 12:30N 29°36' W 090°40'0 0.0
2017-Sep-14 12:00N 29°36' W 090°40'0 0.0
2017-Sep-14 11:30N 29°36' W 090°40'0 0.0
2017-Sep-14 11:00N 29°36' W 090°40'0 0.0
2017-Sep-14 10:30N 29°36' W 090°40'0 0.0
2017-Sep-14 10:00N 29°36' W 090°40'0 0.0
2017-Sep-14 09:30N 29°36' W 090°40'0 0.0
2017-Sep-14 09:00N 29°36' W 090°40'0 0.0
2017-Sep-14 08:30N 29°36' W 090°40'0 0.0
2017-Sep-14 08:00N 29°36' W 090°40'0 0.0
2017-Sep-14 07:30N 29°36' W 090°40'0 0.0
2017-Sep-14 07:00N 29°36' W 090°40'0 0.0
2017-Sep-14 06:30N 29°36' W 090°40'0 0.0
2017-Sep-14 06:00N 29°36' W 090°40'0 0.0
2017-Sep-14 05:30N 29°36' W 090°40'0 0.0
2017-Sep-14 05:00N 29°36' W 090°40'0 0.0
2017-Sep-14 04:30N 29°36' W 090°40'0 0.0
2017-Sep-14 04:00N 29°36' W 090°40'0 0.0
2017-Sep-14 03:30N 29°36' W 090°40'0 0.0
2017-Sep-14 03:00N 29°36' W 090°40'0 0.0
2017-Sep-14 02:30N 29°36' W 090°40'0 0.0
2017-Sep-14 02:00N 29°36' W 090°40'0 0.0
2017-Sep-14 01:30N 29°36' W 090°40'0 0.0
2017-Sep-14 01:00N 29°36' W 090°40'0 0.0
2017-Sep-14 00:30N 29°36' W 090°40'0 0.0
2017-Sep-14 00:00N 29°36' W 090°40'0 0.0
2017-Sep-13 23:30N 29°36' W 090°40'0 0.0
2017-Sep-13 23:00N 29°36' W 090°40'0 0.0
2017-Sep-13 22:30N 29°36' W 090°40'0 0.0
2017-Sep-13 22:00N 29°36' W 090°40'0 0.0
2017-Sep-13 21:27N 29°36' W 090°40'0 0.0
2017-Sep-13 20:58N 29°36' W 090°40'0 0.0
2017-Sep-13 20:30N 29°36' W 090°40'0 0.0
2017-Sep-13 19:58N 29°36' W 090°40'0 0.0
2017-Sep-13 19:30N 29°36' W 090°40'0 0.0
2017-Sep-13 18:52N 29°36' W 090°40'0 0.0
2017-Sep-13 18:28N 29°36' W 090°40'2 3.6
2017-Sep-13 18:00N 29°37' W 090°41'1 1.0
2017-Sep-13 16:36N 29°36' W 090°43'0 4.4
2017-Sep-13 16:30N 29°36' W 090°43'2 4.3
2017-Sep-13 16:00N 29°36' W 090°40'1 1.1
2017-Sep-13 15:29N 29°36' W 090°40'0 0.0
2017-Sep-13 14:58N 29°36' W 090°40'0 0.0
2017-Sep-13 14:29N 29°36' W 090°40'0 0.0
2017-Sep-13 13:58N 29°36' W 090°40'0 0.0
2017-Sep-13 13:30N 29°36' W 090°40'0 0.0
2017-Sep-13 12:49N 29°36' W 090°40'0 0.0
2017-Sep-13 12:30N 29°36' W 090°40'0 0.0
2017-Sep-13 12:00N 29°36' W 090°40'0 0.0
2017-Sep-13 11:29N 29°36' W 090°40'0 0.0
2017-Sep-13 10:59N 29°36' W 090°40'0 0.0
2017-Sep-13 10:30N 29°36' W 090°40'0 0.0
2017-Sep-13 10:00N 29°36' W 090°40'0 0.0
2017-Sep-13 09:30N 29°36' W 090°40'0 0.0
2017-Sep-13 09:00N 29°36' W 090°40'0 0.0
2017-Sep-13 08:30N 29°36' W 090°40'0 0.0
2017-Sep-13 08:00N 29°36' W 090°40'0 0.0
2017-Sep-13 07:30N 29°36' W 090°40'0 0.0
2017-Sep-13 07:00N 29°36' W 090°40'0 0.0
2017-Sep-13 06:29N 29°36' W 090°40'0 0.0
2017-Sep-13 06:00N 29°36' W 090°40'0 0.0
2017-Sep-13 05:30N 29°36' W 090°40'0 0.0
2017-Sep-13 05:00N 29°36' W 090°40'0 0.0
2017-Sep-13 04:30N 29°36' W 090°40'0 0.0
2017-Sep-13 04:00N 29°36' W 090°40'0 0.0
2017-Sep-13 03:29N 29°36' W 090°40'0 0.0
2017-Sep-13 03:00N 29°36' W 090°40'0 0.0
2017-Sep-13 02:30N 29°36' W 090°40'0 0.0
2017-Sep-13 02:00N 29°36' W 090°40'0 0.0
2017-Sep-13 01:30N 29°36' W 090°40'0 0.0
2017-Sep-13 01:00N 29°36' W 090°40'0 0.0
2017-Sep-13 00:30N 29°36' W 090°40'0 0.0
2017-Sep-13 00:00N 29°36' W 090°40'0 0.0
2017-Sep-12 23:30N 29°36' W 090°40'0 0.0
2017-Sep-12 19:05N 29°36' W 090°40'0 0.0
2017-Sep-12 18:54N 29°36' W 090°40'0 0.0
2017-Sep-12 18:13N 29°36' W 090°40'0 0.0
2017-Sep-12 18:00N 29°36' W 090°40'0 0.0
2017-Sep-12 17:12N 29°36' W 090°40'0 0.0
2017-Sep-12 16:59N 29°36' W 090°40'0 0.0
2017-Sep-12 16:28N 29°36' W 090°40'0 0.0
2017-Sep-12 15:59N 29°36' W 090°40'0 0.0
2017-Sep-12 15:27N 29°36' W 090°40'0 0.0
2017-Sep-12 15:00N 29°36' W 090°40'0 0.0
2017-Sep-12 14:29N 29°36' W 090°40'0 0.0
2017-Sep-12 13:57N 29°36' W 090°40'0 0.0
2017-Sep-12 13:28N 29°36' W 090°40'0 0.0
2017-Sep-12 12:58N 29°36' W 090°40'0 0.0
2017-Sep-12 09:15N 29°36' W 090°40'0 0.0
2017-Sep-12 09:00N 29°36' W 090°40'0 0.0
2017-Sep-12 08:30N 29°36' W 090°40'0 0.0
2017-Sep-12 08:00N 29°36' W 090°40'0 0.0
2017-Sep-12 07:30N 29°36' W 090°40'0 0.0
2017-Sep-12 07:00N 29°36' W 090°40'0 0.0
2017-Sep-12 06:30N 29°36' W 090°40'0 0.0
2017-Sep-12 06:00N 29°36' W 090°40'0 0.0
2017-Sep-12 05:30N 29°36' W 090°40'0 0.0
2017-Sep-12 05:00N 29°36' W 090°40'0 0.0
2017-Sep-12 04:30N 29°36' W 090°40'0 0.0
2017-Sep-12 04:00N 29°36' W 090°40'0 0.0
2017-Sep-12 03:30N 29°36' W 090°40'0 0.0
2017-Sep-12 03:00N 29°36' W 090°40'0 0.0
2017-Sep-12 02:30N 29°36' W 090°40'0 0.0
2017-Sep-12 02:00N 29°36' W 090°40'0 0.0
2017-Sep-12 01:30N 29°36' W 090°40'0 0.0
2017-Sep-12 01:00N 29°36' W 090°40'0 0.0
2017-Sep-12 00:30N 29°36' W 090°40'0 0.0
2017-Sep-12 00:00N 29°36' W 090°40'0 0.0
2017-Sep-11 22:34N 29°36' W 090°40'0 0.0
2017-Sep-11 22:11N 29°36' W 090°40'0 0.0
2017-Sep-11 21:44N 29°36' W 090°40'1 4.7
2017-Sep-11 21:30N 29°35' W 090°38'  

Dump ship's entire track history